sensor_id;sensor_type;location;lat;lon;timestamp;P1;P2;P0
60816;PMS5003;51921;51.518;-3.188;2022-11-18T00:00:53;3;3;
60816;PMS5003;51921;51.518;-3.188;2022-11-18T00:03:18;6;5;
60816;PMS5003;51921;51.518;-3.188;2022-11-18T00:08:09;4;4;
60816;PMS5003;51921;51.518;-3.188;2022-11-18T00:10:36;6;5;
60816;PMS5003;51921;51.518;-3.188;2022-11-18T00:13:00;5;5;
60816;PMS5003;51921;51.518;-3.188;2022-11-18T00:15:26;6;5;
60816;PMS5003;51921;51.518;-3.188;2022-11-18T00:17:51;3;3;
60816;PMS5003;51921;51.518;-3.188;2022-11-18T00:20:17;9;7;
60816;PMS5003;51921;51.518;-3.188;2022-11-18T00:22:44;6;6;
60816;PMS5003;51921;51.518;-3.188;2022-11-18T00:25:08;6;6;
60816;PMS5003;51921;51.518;-3.188;2022-11-18T00:27:34;8;8;
60816;PMS5003;51921;51.518;-3.188;2022-11-18T00:29:59;8;7;
60816;PMS5003;51921;51.518;-3.188;2022-11-18T00:32:24;5;5;
60816;PMS5003;51921;51.518;-3.188;2022-11-18T00:34:50;5;4;
60816;PMS5003;51921;51.518;-3.188;2022-11-18T00:37:15;8;7;
60816;PMS5003;51921;51.518;-3.188;2022-11-18T00:39:41;6;5;
60816;PMS5003;51921;51.518;-3.188;2022-11-18T00:42:06;5;5;
60816;PMS5003;51921;51.518;-3.188;2022-11-18T00:44:32;7;7;
60816;PMS5003;51921;51.518;-3.188;2022-11-18T00:46:57;8;6;
60816;PMS5003;51921;51.518;-3.188;2022-11-18T00:49:23;5;5;
60816;PMS5003;51921;51.518;-3.188;2022-11-18T00:51:48;3;3;
60816;PMS5003;51921;51.518;-3.188;2022-11-18T00:54:14;4;4;
60816;PMS5003;51921;51.518;-3.188;2022-11-18T00:56:40;5;4;
60816;PMS5003;51921;51.518;-3.188;2022-11-18T00:59:05;5;4;
60816;PMS5003;51921;51.518;-3.188;2022-11-18T01:01:31;3;3;
60816;PMS5003;51921;51.518;-3.188;2022-11-18T01:03:56;7;5;
60816;PMS5003;51921;51.518;-3.188;2022-11-18T01:06:22;4;4;
60816;PMS5003;51921;51.518;-3.188;2022-11-18T01:08:47;5;4;
60816;PMS5003;51921;51.518;-3.188;2022-11-18T01:11:13;5;5;
60816;PMS5003;51921;51.518;-3.188;2022-11-18T01:13:39;3;3;
60816;PMS5003;51921;51.518;-3.188;2022-11-18T01:16:04;5;4;
60816;PMS5003;51921;51.518;-3.188;2022-11-18T01:18:30;3;3;
60816;PMS5003;51921;51.518;-3.188;2022-11-18T01:20:58;3;3;
60816;PMS5003;51921;51.518;-3.188;2022-11-18T01:23:21;3;3;
60816;PMS5003;51921;51.518;-3.188;2022-11-18T01:25:47;3;3;
60816;PMS5003;51921;51.518;-3.188;2022-11-18T01:28:13;4;4;
60816;PMS5003;51921;51.518;-3.188;2022-11-18T01:30:38;4;3;
60816;PMS5003;51921;51.518;-3.188;2022-11-18T01:33:04;5;4;
60816;PMS5003;51921;51.518;-3.188;2022-11-18T01:35:32;4;4;
60816;PMS5003;51921;51.518;-3.188;2022-11-18T01:37:54;5;4;
60816;PMS5003;51921;51.518;-3.188;2022-11-18T01:40:20;3;3;
60816;PMS5003;51921;51.518;-3.188;2022-11-18T01:42:46;4;4;
60816;PMS5003;51921;51.518;-3.188;2022-11-18T01:45:18;3;3;
60816;PMS5003;51921;51.518;-3.188;2022-11-18T01:47:38;2;2;
60816;PMS5003;51921;51.518;-3.188;2022-11-18T01:50:03;4;4;
60816;PMS5003;51921;51.518;-3.188;2022-11-18T01:52:28;3;3;
60816;PMS5003;51921;51.518;-3.188;2022-11-18T01:54:54;3;3;
60816;PMS5003;51921;51.518;-3.188;2022-11-18T01:57:19;4;3;
60816;PMS5003;51921;51.518;-3.188;2022-11-18T01:59:45;5;4;
60816;PMS5003;51921;51.518;-3.188;2022-11-18T02:02:11;3;3;
60816;PMS5003;51921;51.518;-3.188;2022-11-18T02:04:36;3;3;
60816;PMS5003;51921;51.518;-3.188;2022-11-18T02:07:01;4;3;
60816;PMS5003;51921;51.518;-3.188;2022-11-18T02:09:27;5;4;
60816;PMS5003;51921;51.518;-3.188;2022-11-18T02:11:52;5;4;
60816;PMS5003;51921;51.518;-3.188;2022-11-18T02:14:18;3;3;
60816;PMS5003;51921;51.518;-3.188;2022-11-18T02:16:47;3;3;
60816;PMS5003;51921;51.518;-3.188;2022-11-18T02:19:12;3;3;
60816;PMS5003;51921;51.518;-3.188;2022-11-18T02:21:37;4;4;
60816;PMS5003;51921;51.518;-3.188;2022-11-18T02:24:05;3;3;
60816;PMS5003;51921;51.518;-3.188;2022-11-18T02:28:55;3;3;
60816;PMS5003;51921;51.518;-3.188;2022-11-18T02:31:18;5;5;
60816;PMS5003;51921;51.518;-3.188;2022-11-18T02:33:44;4;3;
60816;PMS5003;51921;51.518;-3.188;2022-11-18T02:36:10;3;3;
60816;PMS5003;51921;51.518;-3.188;2022-11-18T02:38:35;3;3;
60816;PMS5003;51921;51.518;-3.188;2022-11-18T02:41:00;3;3;
60816;PMS5003;51921;51.518;-3.188;2022-11-18T02:43:25;5;4;
60816;PMS5003;51921;51.518;-3.188;2022-11-18T02:45:51;4;4;
60816;PMS5003;51921;51.518;-3.188;2022-11-18T02:48:15;3;3;
60816;PMS5003;51921;51.518;-3.188;2022-11-18T02:50:41;2;2;
60816;PMS5003;51921;51.518;-3.188;2022-11-18T02:53:06;1;1;
60816;PMS5003;51921;51.518;-3.188;2022-11-18T02:55:33;2;2;
60816;PMS5003;51921;51.518;-3.188;2022-11-18T02:57:58;3;3;
60816;PMS5003;51921;51.518;-3.188;2022-11-18T03:00:23;2;2;
60816;PMS5003;51921;51.518;-3.188;2022-11-18T03:02:49;2;2;
60816;PMS5003;51921;51.518;-3.188;2022-11-18T03:05:16;3;3;
60816;PMS5003;51921;51.518;-3.188;2022-11-18T03:07:40;2;2;
60816;PMS5003;51921;51.518;-3.188;2022-11-18T03:10:06;2;2;
60816;PMS5003;51921;51.518;-3.188;2022-11-18T03:12:32;4;3;
60816;PMS5003;51921;51.518;-3.188;2022-11-18T03:15:00;3;2;
60816;PMS5003;51921;51.518;-3.188;2022-11-18T03:17:24;4;3;
60816;PMS5003;51921;51.518;-3.188;2022-11-18T03:19:53;3;3;
60816;PMS5003;51921;51.518;-3.188;2022-11-18T03:22:14;1;1;
60816;PMS5003;51921;51.518;-3.188;2022-11-18T03:24:39;3;3;
60816;PMS5003;51921;51.518;-3.188;2022-11-18T03:27:06;4;3;
60816;PMS5003;51921;51.518;-3.188;2022-11-18T03:29:31;2;2;
60816;PMS5003;51921;51.518;-3.188;2022-11-18T03:31:57;3;3;
60816;PMS5003;51921;51.518;-3.188;2022-11-18T03:34:22;2;2;
60816;PMS5003;51921;51.518;-3.188;2022-11-18T03:36:48;3;3;
60816;PMS5003;51921;51.518;-3.188;2022-11-18T03:39:12;3;2;
60816;PMS5003;51921;51.518;-3.188;2022-11-18T03:41:39;3;2;
60816;PMS5003;51921;51.518;-3.188;2022-11-18T03:44:04;3;3;
60816;PMS5003;51921;51.518;-3.188;2022-11-18T03:46:30;3;3;
60816;PMS5003;51921;51.518;-3.188;2022-11-18T03:48:55;3;3;
60816;PMS5003;51921;51.518;-3.188;2022-11-18T03:51:21;4;3;
60816;PMS5003;51921;51.518;-3.188;2022-11-18T03:53:46;3;3;
60816;PMS5003;51921;51.518;-3.188;2022-11-18T03:56:12;5;5;
60816;PMS5003;51921;51.518;-3.188;2022-11-18T03:58:37;8;8;
60816;PMS5003;51921;51.518;-3.188;2022-11-18T04:01:03;5;4;
60816;PMS5003;51921;51.518;-3.188;2022-11-18T04:03:27;5;5;
60816;PMS5003;51921;51.518;-3.188;2022-11-18T04:05:54;4;4;
60816;PMS5003;51921;51.518;-3.188;2022-11-18T04:08:23;5;4;
60816;PMS5003;51921;51.518;-3.188;2022-11-18T04:10:45;5;4;
60816;PMS5003;51921;51.518;-3.188;2022-11-18T04:13:11;3;3;
60816;PMS5003;51921;51.518;-3.188;2022-11-18T04:15:35;3;3;
60816;PMS5003;51921;51.518;-3.188;2022-11-18T04:18:01;3;3;
60816;PMS5003;51921;51.518;-3.188;2022-11-18T04:20:26;3;3;
60816;PMS5003;51921;51.518;-3.188;2022-11-18T04:22:52;2;2;
60816;PMS5003;51921;51.518;-3.188;2022-11-18T04:25:17;6;5;
60816;PMS5003;51921;51.518;-3.188;2022-11-18T04:27:43;3;3;
60816;PMS5003;51921;51.518;-3.188;2022-11-18T04:30:09;3;3;
60816;PMS5003;51921;51.518;-3.188;2022-11-18T04:32:34;3;3;
60816;PMS5003;51921;51.518;-3.188;2022-11-18T04:35:00;5;4;
60816;PMS5003;51921;51.518;-3.188;2022-11-18T04:37:25;4;4;
60816;PMS5003;51921;51.518;-3.188;2022-11-18T04:39:51;4;3;
60816;PMS5003;51921;51.518;-3.188;2022-11-18T04:42:16;2;2;
60816;PMS5003;51921;51.518;-3.188;2022-11-18T04:44:42;5;4;
60816;PMS5003;51921;51.518;-3.188;2022-11-18T04:47:07;4;4;
60816;PMS5003;51921;51.518;-3.188;2022-11-18T04:49:32;7;5;
60816;PMS5003;51921;51.518;-3.188;2022-11-18T04:51:58;6;6;
60816;PMS5003;51921;51.518;-3.188;2022-11-18T04:54:24;4;3;
60816;PMS5003;51921;51.518;-3.188;2022-11-18T04:56:49;3;3;
60816;PMS5003;51921;51.518;-3.188;2022-11-18T04:59:15;8;6;
60816;PMS5003;51921;51.518;-3.188;2022-11-18T05:01:40;5;4;
60816;PMS5003;51921;51.518;-3.188;2022-11-18T05:04:06;6;5;
60816;PMS5003;51921;51.518;-3.188;2022-11-18T05:06:31;7;4;
60816;PMS5003;51921;51.518;-3.188;2022-11-18T05:08:56;6;4;
60816;PMS5003;51921;51.518;-3.188;2022-11-18T05:11:22;5;4;
60816;PMS5003;51921;51.518;-3.188;2022-11-18T05:13:48;5;5;
60816;PMS5003;51921;51.518;-3.188;2022-11-18T05:16:13;5;4;
60816;PMS5003;51921;51.518;-3.188;2022-11-18T05:18:39;5;4;
60816;PMS5003;51921;51.518;-3.188;2022-11-18T05:21:04;6;6;
60816;PMS5003;51921;51.518;-3.188;2022-11-18T05:23:30;4;3;
60816;PMS5003;51921;51.518;-3.188;2022-11-18T05:25:55;5;5;
60816;PMS5003;51921;51.518;-3.188;2022-11-18T05:28:21;4;3;
60816;PMS5003;51921;51.518;-3.188;2022-11-18T05:30:46;4;4;
60816;PMS5003;51921;51.518;-3.188;2022-11-18T05:33:12;7;5;
60816;PMS5003;51921;51.518;-3.188;2022-11-18T05:35:37;5;4;
60816;PMS5003;51921;51.518;-3.188;2022-11-18T05:38:03;3;3;
60816;PMS5003;51921;51.518;-3.188;2022-11-18T05:40:29;3;3;
60816;PMS5003;51921;51.518;-3.188;2022-11-18T05:42:54;4;4;
60816;PMS5003;51921;51.518;-3.188;2022-11-18T05:45:20;4;4;
60816;PMS5003;51921;51.518;-3.188;2022-11-18T05:47:45;5;3;
60816;PMS5003;51921;51.518;-3.188;2022-11-18T05:50:11;4;4;
60816;PMS5003;51921;51.518;-3.188;2022-11-18T05:52:36;4;3;
60816;PMS5003;51921;51.518;-3.188;2022-11-18T05:55:02;4;4;
60816;PMS5003;51921;51.518;-3.188;2022-11-18T05:57:27;4;4;
60816;PMS5003;51921;51.518;-3.188;2022-11-18T05:59:53;4;4;
60816;PMS5003;51921;51.518;-3.188;2022-11-18T06:02:19;4;4;
60816;PMS5003;51921;51.518;-3.188;2022-11-18T06:04:50;4;4;
60816;PMS5003;51921;51.518;-3.188;2022-11-18T06:07:11;3;3;
60816;PMS5003;51921;51.518;-3.188;2022-11-18T06:09:36;4;3;
60816;PMS5003;51921;51.518;-3.188;2022-11-18T06:12:01;6;5;
60816;PMS5003;51921;51.518;-3.188;2022-11-18T06:14:27;4;4;
60816;PMS5003;51921;51.518;-3.188;2022-11-18T06:16:52;6;4;
60816;PMS5003;51921;51.518;-3.188;2022-11-18T06:19:17;4;4;
60816;PMS5003;51921;51.518;-3.188;2022-11-18T06:21:43;5;4;
60816;PMS5003;51921;51.518;-3.188;2022-11-18T06:24:09;4;3;
60816;PMS5003;51921;51.518;-3.188;2022-11-18T06:26:34;2;2;
60816;PMS5003;51921;51.518;-3.188;2022-11-18T06:28:59;3;3;
60816;PMS5003;51921;51.518;-3.188;2022-11-18T06:31:25;3;3;
60816;PMS5003;51921;51.518;-3.188;2022-11-18T06:33:51;3;3;
60816;PMS5003;51921;51.518;-3.188;2022-11-18T06:36:16;3;3;
60816;PMS5003;51921;51.518;-3.188;2022-11-18T06:38:42;3;3;
60816;PMS5003;51921;51.518;-3.188;2022-11-18T06:41:07;2;2;
60816;PMS5003;51921;51.518;-3.188;2022-11-18T06:43:33;2;2;
60816;PMS5003;51921;51.518;-3.188;2022-11-18T06:45:59;3;2;
60816;PMS5003;51921;51.518;-3.188;2022-11-18T06:48:24;1;1;
60816;PMS5003;51921;51.518;-3.188;2022-11-18T06:50:50;4;3;
60816;PMS5003;51921;51.518;-3.188;2022-11-18T06:53:15;3;3;
60816;PMS5003;51921;51.518;-3.188;2022-11-18T06:55:41;2;2;
60816;PMS5003;51921;51.518;-3.188;2022-11-18T06:58:06;1;1;
60816;PMS5003;51921;51.518;-3.188;2022-11-18T07:00:32;2;2;
60816;PMS5003;51921;51.518;-3.188;2022-11-18T07:02:58;2;2;
60816;PMS5003;51921;51.518;-3.188;2022-11-18T07:05:23;2;2;
60816;PMS5003;51921;51.518;-3.188;2022-11-18T07:07:49;1;1;
60816;PMS5003;51921;51.518;-3.188;2022-11-18T07:10:14;2;2;
60816;PMS5003;51921;51.518;-3.188;2022-11-18T07:12:40;2;2;
60816;PMS5003;51921;51.518;-3.188;2022-11-18T07:15:06;1;1;
60816;PMS5003;51921;51.518;-3.188;2022-11-18T07:17:31;3;3;
60816;PMS5003;51921;51.518;-3.188;2022-11-18T07:19:56;4;4;
60816;PMS5003;51921;51.518;-3.188;2022-11-18T07:22:22;4;4;
60816;PMS5003;51921;51.518;-3.188;2022-11-18T07:24:48;5;4;
60816;PMS5003;51921;51.518;-3.188;2022-11-18T07:27:13;4;3;
60816;PMS5003;51921;51.518;-3.188;2022-11-18T07:29:39;4;4;
60816;PMS5003;51921;51.518;-3.188;2022-11-18T07:32:05;4;4;
60816;PMS5003;51921;51.518;-3.188;2022-11-18T07:34:30;3;3;
60816;PMS5003;51921;51.518;-3.188;2022-11-18T07:36:56;4;4;
60816;PMS5003;51921;51.518;-3.188;2022-11-18T07:39:21;2;2;
60816;PMS5003;51921;51.518;-3.188;2022-11-18T07:41:47;4;3;
60816;PMS5003;51921;51.518;-3.188;2022-11-18T07:44:13;2;2;
60816;PMS5003;51921;51.518;-3.188;2022-11-18T07:46:38;2;2;
60816;PMS5003;51921;51.518;-3.188;2022-11-18T07:49:04;2;1;
60816;PMS5003;51921;51.518;-3.188;2022-11-18T07:51:30;0;0;
60816;PMS5003;51921;51.518;-3.188;2022-11-18T07:53:55;5;4;
60816;PMS5003;51921;51.518;-3.188;2022-11-18T07:56:20;3;3;
60816;PMS5003;51921;51.518;-3.188;2022-11-18T07:58:46;4;4;
60816;PMS5003;51921;51.518;-3.188;2022-11-18T08:01:12;4;4;
60816;PMS5003;51921;51.518;-3.188;2022-11-18T08:03:38;6;5;
60816;PMS5003;51921;51.518;-3.188;2022-11-18T08:06:03;3;3;
60816;PMS5003;51921;51.518;-3.188;2022-11-18T08:08:28;4;3;
60816;PMS5003;51921;51.518;-3.188;2022-11-18T08:10:54;6;5;
60816;PMS5003;51921;51.518;-3.188;2022-11-18T08:13:19;4;4;
60816;PMS5003;51921;51.518;-3.188;2022-11-18T08:15:45;4;4;
60816;PMS5003;51921;51.518;-3.188;2022-11-18T08:18:11;5;4;
60816;PMS5003;51921;51.518;-3.188;2022-11-18T08:20:36;4;4;
60816;PMS5003;51921;51.518;-3.188;2022-11-18T08:23:02;3;3;
60816;PMS5003;51921;51.518;-3.188;2022-11-18T08:25:27;3;3;
60816;PMS5003;51921;51.518;-3.188;2022-11-18T08:27:52;2;2;
60816;PMS5003;51921;51.518;-3.188;2022-11-18T08:30:18;3;3;
60816;PMS5003;51921;51.518;-3.188;2022-11-18T08:32:44;3;3;
60816;PMS5003;51921;51.518;-3.188;2022-11-18T08:35:09;2;2;
60816;PMS5003;51921;51.518;-3.188;2022-11-18T08:37:35;1;1;
60816;PMS5003;51921;51.518;-3.188;2022-11-18T08:40:00;2;2;
60816;PMS5003;51921;51.518;-3.188;2022-11-18T08:42:26;1;1;
60816;PMS5003;51921;51.518;-3.188;2022-11-18T08:44:51;3;3;
60816;PMS5003;51921;51.518;-3.188;2022-11-18T08:47:17;3;3;
60816;PMS5003;51921;51.518;-3.188;2022-11-18T08:49:42;1;1;
60816;PMS5003;51921;51.518;-3.188;2022-11-18T08:52:08;2;2;
60816;PMS5003;51921;51.518;-3.188;2022-11-18T08:54:33;0;0;
60816;PMS5003;51921;51.518;-3.188;2022-11-18T08:56:59;3;2;
60816;PMS5003;51921;51.518;-3.188;2022-11-18T08:59:25;2;1;
60816;PMS5003;51921;51.518;-3.188;2022-11-18T09:01:50;1;1;
60816;PMS5003;51921;51.518;-3.188;2022-11-18T09:04:16;1;1;
60816;PMS5003;51921;51.518;-3.188;2022-11-18T09:06:41;1;1;
60816;PMS5003;51921;51.518;-3.188;2022-11-18T09:09:07;2;1;
60816;PMS5003;51921;51.518;-3.188;2022-11-18T09:11:32;2;2;
60816;PMS5003;51921;51.518;-3.188;2022-11-18T09:13:58;1;1;
60816;PMS5003;51921;51.518;-3.188;2022-11-18T09:16:23;2;2;
60816;PMS5003;51921;51.518;-3.188;2022-11-18T09:18:48;4;4;
60816;PMS5003;51921;51.518;-3.188;2022-11-18T09:21:14;2;2;
60816;PMS5003;51921;51.518;-3.188;2022-11-18T09:23:39;3;3;
60816;PMS5003;51921;51.518;-3.188;2022-11-18T09:26:06;3;3;
60816;PMS5003;51921;51.518;-3.188;2022-11-18T09:28:30;2;2;
60816;PMS5003;51921;51.518;-3.188;2022-11-18T09:30:56;2;2;
60816;PMS5003;51921;51.518;-3.188;2022-11-18T09:33:21;7;6;
60816;PMS5003;51921;51.518;-3.188;2022-11-18T09:35:46;2;2;
60816;PMS5003;51921;51.518;-3.188;2022-11-18T09:38:12;2;2;
60816;PMS5003;51921;51.518;-3.188;2022-11-18T09:40:40;2;2;
60816;PMS5003;51921;51.518;-3.188;2022-11-18T09:43:04;3;2;
60816;PMS5003;51921;51.518;-3.188;2022-11-18T09:45:29;1;1;
60816;PMS5003;51921;51.518;-3.188;2022-11-18T09:47:55;0;0;
60816;PMS5003;51921;51.518;-3.188;2022-11-18T09:50:21;2;2;
60816;PMS5003;51921;51.518;-3.188;2022-11-18T09:52:47;1;1;
60816;PMS5003;51921;51.518;-3.188;2022-11-18T09:55:12;4;3;
60816;PMS5003;51921;51.518;-3.188;2022-11-18T09:57:37;1;1;
60816;PMS5003;51921;51.518;-3.188;2022-11-18T10:00:05;3;3;
60816;PMS5003;51921;51.518;-3.188;2022-11-18T10:02:32;3;2;
60816;PMS5003;51921;51.518;-3.188;2022-11-18T10:04:53;3;3;
60816;PMS5003;51921;51.518;-3.188;2022-11-18T10:07:19;1;1;
60816;PMS5003;51921;51.518;-3.188;2022-11-18T10:09:44;4;2;
60816;PMS5003;51921;51.518;-3.188;2022-11-18T10:12:16;1;1;
60816;PMS5003;51921;51.518;-3.188;2022-11-18T10:14:41;2;1;
60816;PMS5003;51921;51.518;-3.188;2022-11-18T10:17:02;2;1;
60816;PMS5003;51921;51.518;-3.188;2022-11-18T10:19:28;2;2;
60816;PMS5003;51921;51.518;-3.188;2022-11-18T10:21:55;1;1;
60816;PMS5003;51921;51.518;-3.188;2022-11-18T10:24:18;2;2;
60816;PMS5003;51921;51.518;-3.188;2022-11-18T10:26:43;3;1;
60816;PMS5003;51921;51.518;-3.188;2022-11-18T10:29:08;2;1;
60816;PMS5003;51921;51.518;-3.188;2022-11-18T10:31:35;2;2;
60816;PMS5003;51921;51.518;-3.188;2022-11-18T10:34:00;1;0;
60816;PMS5003;51921;51.518;-3.188;2022-11-18T10:36:26;3;1;
60816;PMS5003;51921;51.518;-3.188;2022-11-18T10:41:17;2;1;
60816;PMS5003;51921;51.518;-3.188;2022-11-18T10:43:44;2;1;
60816;PMS5003;51921;51.518;-3.188;2022-11-18T10:48:32;2;1;
60816;PMS5003;51921;51.518;-3.188;2022-11-18T10:50:58;2;1;
60816;PMS5003;51921;51.518;-3.188;2022-11-18T10:53:29;1;1;
60816;PMS5003;51921;51.518;-3.188;2022-11-18T10:55:50;2;2;
60816;PMS5003;51921;51.518;-3.188;2022-11-18T10:58:14;2;1;
60816;PMS5003;51921;51.518;-3.188;2022-11-18T11:00:41;1;1;
60816;PMS5003;51921;51.518;-3.188;2022-11-18T11:03:18;0;0;
60816;PMS5003;51921;51.518;-3.188;2022-11-18T11:05:31;2;1;
60816;PMS5003;51921;51.518;-3.188;2022-11-18T11:08:00;2;1;
60816;PMS5003;51921;51.518;-3.188;2022-11-18T11:10:22;2;2;
60816;PMS5003;51921;51.518;-3.188;2022-11-18T11:12:48;2;2;
60816;PMS5003;51921;51.518;-3.188;2022-11-18T11:15:14;2;2;
60816;PMS5003;51921;51.518;-3.188;2022-11-18T11:17:39;1;1;
60816;PMS5003;51921;51.518;-3.188;2022-11-18T11:20:05;2;1;
60816;PMS5003;51921;51.518;-3.188;2022-11-18T11:22:29;2;1;
60816;PMS5003;51921;51.518;-3.188;2022-11-18T11:24:55;2;2;
60816;PMS5003;51921;51.518;-3.188;2022-11-18T11:27:23;1;1;
60816;PMS5003;51921;51.518;-3.188;2022-11-18T11:32:14;3;1;
60816;PMS5003;51921;51.518;-3.188;2022-11-18T11:34:39;0;0;
60816;PMS5003;51921;51.518;-3.188;2022-11-18T11:37:03;1;1;
60816;PMS5003;51921;51.518;-3.188;2022-11-18T11:41:53;3;2;
60816;PMS5003;51921;51.518;-3.188;2022-11-18T11:44:24;3;3;
60816;PMS5003;51921;51.518;-3.188;2022-11-18T11:46:46;3;2;
60816;PMS5003;51921;51.518;-3.188;2022-11-18T11:49:14;0;0;
60816;PMS5003;51921;51.518;-3.188;2022-11-18T11:51:35;2;1;
60816;PMS5003;51921;51.518;-3.188;2022-11-18T11:54:05;4;2;
60816;PMS5003;51921;51.518;-3.188;2022-11-18T11:56:28;3;2;
60816;PMS5003;51921;51.518;-3.188;2022-11-18T11:58:58;2;2;
60816;PMS5003;51921;51.518;-3.188;2022-11-18T12:01:18;2;1;
60816;PMS5003;51921;51.518;-3.188;2022-11-18T12:03:44;2;2;
60816;PMS5003;51921;51.518;-3.188;2022-11-18T12:06:08;4;3;
60816;PMS5003;51921;51.518;-3.188;2022-11-18T12:08:33;0;0;
60816;PMS5003;51921;51.518;-3.188;2022-11-18T12:10:59;1;1;
60816;PMS5003;51921;51.518;-3.188;2022-11-18T12:13:28;1;1;
60816;PMS5003;51921;51.518;-3.188;2022-11-18T12:15:53;2;2;
60816;PMS5003;51921;51.518;-3.188;2022-11-18T12:18:18;2;2;
60816;PMS5003;51921;51.518;-3.188;2022-11-18T12:20:42;0;0;
60816;PMS5003;51921;51.518;-3.188;2022-11-18T12:23:08;1;1;
60816;PMS5003;51921;51.518;-3.188;2022-11-18T12:27:57;2;1;
60816;PMS5003;51921;51.518;-3.188;2022-11-18T12:30:23;2;2;
60816;PMS5003;51921;51.518;-3.188;2022-11-18T12:32:48;3;2;
60816;PMS5003;51921;51.518;-3.188;2022-11-18T12:35:21;2;2;
60816;PMS5003;51921;51.518;-3.188;2022-11-18T12:37:42;2;1;
60816;PMS5003;51921;51.518;-3.188;2022-11-18T12:40:06;1;0;
60816;PMS5003;51921;51.518;-3.188;2022-11-18T12:42:32;3;2;
60816;PMS5003;51921;51.518;-3.188;2022-11-18T12:44:56;0;0;
60816;PMS5003;51921;51.518;-3.188;2022-11-18T12:54:38;2;2;
60816;PMS5003;51921;51.518;-3.188;2022-11-18T12:57:09;2;1;
60816;PMS5003;51921;51.518;-3.188;2022-11-18T12:59:30;0;0;
60816;PMS5003;51921;51.518;-3.188;2022-11-18T13:02:01;3;2;
60816;PMS5003;51921;51.518;-3.188;2022-11-18T13:04:20;1;1;
60816;PMS5003;51921;51.518;-3.188;2022-11-18T13:06:45;6;4;
60816;PMS5003;51921;51.518;-3.188;2022-11-18T13:09:13;3;3;
60816;PMS5003;51921;51.518;-3.188;2022-11-18T13:11:39;6;5;
60816;PMS5003;51921;51.518;-3.188;2022-11-18T13:14:02;2;2;
60816;PMS5003;51921;51.518;-3.188;2022-11-18T13:16:27;5;4;
60816;PMS5003;51921;51.518;-3.188;2022-11-18T13:18:53;5;5;
60816;PMS5003;51921;51.518;-3.188;2022-11-18T13:21:19;2;2;
60816;PMS5003;51921;51.518;-3.188;2022-11-18T13:23:43;2;2;
60816;PMS5003;51921;51.518;-3.188;2022-11-18T13:26:11;5;4;
60816;PMS5003;51921;51.518;-3.188;2022-11-18T13:28:36;4;4;
60816;PMS5003;51921;51.518;-3.188;2022-11-18T13:31:00;3;3;
60816;PMS5003;51921;51.518;-3.188;2022-11-18T13:33:24;3;3;
60816;PMS5003;51921;51.518;-3.188;2022-11-18T13:35:50;9;9;
60816;PMS5003;51921;51.518;-3.188;2022-11-18T13:38:19;7;5;
60816;PMS5003;51921;51.518;-3.188;2022-11-18T13:40:42;2;2;
60816;PMS5003;51921;51.518;-3.188;2022-11-18T13:43:08;6;5;
60816;PMS5003;51921;51.518;-3.188;2022-11-18T13:45:31;6;4;
60816;PMS5003;51921;51.518;-3.188;2022-11-18T13:47:58;2;1;
60816;PMS5003;51921;51.518;-3.188;2022-11-18T13:50:23;3;3;
60816;PMS5003;51921;51.518;-3.188;2022-11-18T13:52:48;1;0;
60816;PMS5003;51921;51.518;-3.188;2022-11-18T13:55:15;1;1;
60816;PMS5003;51921;51.518;-3.188;2022-11-18T13:57:38;2;2;
60816;PMS5003;51921;51.518;-3.188;2022-11-18T14:00:05;2;2;
60816;PMS5003;51921;51.518;-3.188;2022-11-18T14:02:29;1;1;
60816;PMS5003;51921;51.518;-3.188;2022-11-18T14:04:55;2;2;
60816;PMS5003;51921;51.518;-3.188;2022-11-18T14:07:22;3;2;
60816;PMS5003;51921;51.518;-3.188;2022-11-18T14:09:51;2;2;
60816;PMS5003;51921;51.518;-3.188;2022-11-18T14:14:37;2;1;
60816;PMS5003;51921;51.518;-3.188;2022-11-18T14:17:03;3;3;
60816;PMS5003;51921;51.518;-3.188;2022-11-18T14:19:29;3;3;
60816;PMS5003;51921;51.518;-3.188;2022-11-18T14:21:53;5;3;
60816;PMS5003;51921;51.518;-3.188;2022-11-18T14:24:23;5;4;
60816;PMS5003;51921;51.518;-3.188;2022-11-18T14:26:44;2;1;
60816;PMS5003;51921;51.518;-3.188;2022-11-18T14:29:13;3;2;
60816;PMS5003;51921;51.518;-3.188;2022-11-18T14:31:35;1;1;
60816;PMS5003;51921;51.518;-3.188;2022-11-18T14:34:03;3;3;
60816;PMS5003;51921;51.518;-3.188;2022-11-18T14:36:26;2;2;
60816;PMS5003;51921;51.518;-3.188;2022-11-18T14:38:52;2;2;
60816;PMS5003;51921;51.518;-3.188;2022-11-18T14:41:18;5;3;
60816;PMS5003;51921;51.518;-3.188;2022-11-18T14:43:43;2;2;
60816;PMS5003;51921;51.518;-3.188;2022-11-18T14:46:11;1;1;
60816;PMS5003;51921;51.518;-3.188;2022-11-18T14:48:34;3;3;
60816;PMS5003;51921;51.518;-3.188;2022-11-18T14:50:59;4;2;
60816;PMS5003;51921;51.518;-3.188;2022-11-18T14:53:25;3;3;
60816;PMS5003;51921;51.518;-3.188;2022-11-18T14:55:51;1;1;
60816;PMS5003;51921;51.518;-3.188;2022-11-18T14:58:16;7;4;
60816;PMS5003;51921;51.518;-3.188;2022-11-18T15:00:42;2;2;
60816;PMS5003;51921;51.518;-3.188;2022-11-18T15:03:07;4;2;
60816;PMS5003;51921;51.518;-3.188;2022-11-18T15:05:32;5;2;
60816;PMS5003;51921;51.518;-3.188;2022-11-18T15:07:58;4;1;
60816;PMS5003;51921;51.518;-3.188;2022-11-18T15:10:23;1;1;
60816;PMS5003;51921;51.518;-3.188;2022-11-18T15:12:49;3;2;
60816;PMS5003;51921;51.518;-3.188;2022-11-18T15:15:14;1;1;
60816;PMS5003;51921;51.518;-3.188;2022-11-18T15:17:40;2;1;
60816;PMS5003;51921;51.518;-3.188;2022-11-18T15:20:08;1;1;
60816;PMS5003;51921;51.518;-3.188;2022-11-18T15:22:31;1;1;
60816;PMS5003;51921;51.518;-3.188;2022-11-18T15:24:57;1;1;
60816;PMS5003;51921;51.518;-3.188;2022-11-18T15:27:22;3;3;
60816;PMS5003;51921;51.518;-3.188;2022-11-18T15:29:48;4;3;
60816;PMS5003;51921;51.518;-3.188;2022-11-18T15:32:13;3;1;
60816;PMS5003;51921;51.518;-3.188;2022-11-18T15:34:39;1;1;
60816;PMS5003;51921;51.518;-3.188;2022-11-18T15:37:04;2;1;
60816;PMS5003;51921;51.518;-3.188;2022-11-18T15:39:30;1;1;
60816;PMS5003;51921;51.518;-3.188;2022-11-18T15:41:55;4;3;
60816;PMS5003;51921;51.518;-3.188;2022-11-18T15:44:21;1;1;
60816;PMS5003;51921;51.518;-3.188;2022-11-18T15:46:46;2;1;
60816;PMS5003;51921;51.518;-3.188;2022-11-18T15:49:12;2;2;
60816;PMS5003;51921;51.518;-3.188;2022-11-18T15:51:37;1;1;
60816;PMS5003;51921;51.518;-3.188;2022-11-18T15:54:02;5;4;
60816;PMS5003;51921;51.518;-3.188;2022-11-18T15:56:29;4;3;
60816;PMS5003;51921;51.518;-3.188;2022-11-18T15:58:54;3;2;
60816;PMS5003;51921;51.518;-3.188;2022-11-18T16:01:19;6;4;
60816;PMS5003;51921;51.518;-3.188;2022-11-18T16:03:45;2;2;
60816;PMS5003;51921;51.518;-3.188;2022-11-18T16:06:10;1;1;
60816;PMS5003;51921;51.518;-3.188;2022-11-18T16:08:36;2;1;
60816;PMS5003;51921;51.518;-3.188;2022-11-18T16:11:01;1;1;
60816;PMS5003;51921;51.518;-3.188;2022-11-18T16:13:27;7;5;
60816;PMS5003;51921;51.518;-3.188;2022-11-18T16:15:52;3;2;
60816;PMS5003;51921;51.518;-3.188;2022-11-18T16:18:18;6;6;
60816;PMS5003;51921;51.518;-3.188;2022-11-18T16:20:43;8;8;
60816;PMS5003;51921;51.518;-3.188;2022-11-18T16:23:09;9;9;
60816;PMS5003;51921;51.518;-3.188;2022-11-18T16:25:34;6;6;
60816;PMS5003;51921;51.518;-3.188;2022-11-18T16:28:00;6;5;
60816;PMS5003;51921;51.518;-3.188;2022-11-18T16:30:25;6;6;
60816;PMS5003;51921;51.518;-3.188;2022-11-18T16:32:51;11;9;
60816;PMS5003;51921;51.518;-3.188;2022-11-18T16:35:16;23;22;
60816;PMS5003;51921;51.518;-3.188;2022-11-18T16:37:42;19;15;
60816;PMS5003;51921;51.518;-3.188;2022-11-18T16:40:08;19;17;
60816;PMS5003;51921;51.518;-3.188;2022-11-18T16:42:33;17;12;
60816;PMS5003;51921;51.518;-3.188;2022-11-18T16:44:58;17;15;
60816;PMS5003;51921;51.518;-3.188;2022-11-18T16:47:24;21;20;